Castlewood, South Dakota
Current Conditions -  °F | °C
As of 9:53 AM on Friday 28 Nov 2014 (Local Time) from KATY Reporting Station
Overcast Overcast  
Wind Chill:   Ceiling: 11000
Heat Index: 16°   Visibility: 10mi
Dew Point: 11°   Wind: 7mph
Humidity: 81%   Direction: 90°E
Pressure: 29.79"   Gusts: NA
Location:  44.72°N, 97.03°W
Report Text: KATY 281553Z AUTO 09006KT 10SM FEW080 OVC110 M09/M12 A2979 RMK AO2 SLP121 T10891117
Loading
Personal Weather Stations






























Interactive Weather Map New forecast layout! Learn more

10-Day Weather Forecast

Advertisements
Track Severe Weather on mobile